UUOK

Details ICAO UUOK (URS)
Name KURSK
Region Russia
Timezone Europe/Moscow (UTC+3.0)
Plans Departing 12
Arriving 14
Stats Elevation 686 ft / 209 m (AMSL)
Location 51.750613° 36.295586°
Runways 1
Magnetic Variation 9.179° E
Sunrise 2017-12-15 05:36:38 UTC / 2017-12-15 08:36:38 Local
Sunset 2017-12-15 13:26:00 UTC / 2017-12-15 16:26:00 Local
Advertisement - Login to hide

Runways

ID Width Length Bearing (true) Bearing (mag) Surface Threshold Offset Overrun Length
12 131 ft / 40 m 8,183 ft / 2,494 m 124.05° 114.87° Concrete 0 ft / 0 m 0 ft / 0 m
30 131 ft / 40 m 8,183 ft / 2,494 m 304.07° 294.89° Concrete 0 ft / 0 m 0 ft / 0 m

Map

Weather


0- 5 10 15 20 25 30 35+ Temperature / ° C

Clouds and Precipitation
Forecast for 2017-12-15 18:00 UTC. Updated an hour ago

Ground ~20,000 ft ~40,000 ft Winds

METAR

UUOK 151600Z VRB01MPS 2900 -DZ BR OVC004 04/04 Q1012 R12/190055 NOSIG RMK QBB140 QFE741/0988

TAF

Not found

Frequencies

Ground 120.60 MHz TAXIING
Approach 131.50 MHz KRUG
Tower 131.50 MHz START
Warning: Do not use this data for real-world aviation or navigation. No guarantee of current accuracy is given.